Terminal Aerodrome Forecast
Issued by NWS

Home | Current Version | Previous Version | Text Only | Print | Product List | Glossary On
Versions: 1 2 3 4 5 6 7 8 9 10 11 12 13 14 15 16 17 18 19
893
FTUS46 KSEW 192106 AAA
TAFBLI
TAF AMD
KBLI 192106Z 1921/2018 18010KT P6SM VCSH BKN040 BKN080
     FM201200 VRB03KT P6SM VCSH BKN020 BKN040
     FM201700 36006KT P6SM SCT030 BKN060=

USA.gov is the U.S. government's official web portal to all federal, state and local government web resources and services.